createdAt,value
2019-03-06T00:00:53.375Z,3.63
2019-03-06T00:03:22.677Z,2.93
2019-03-06T00:05:51.658Z,3.10
2019-03-06T00:08:20.638Z,3.33
2019-03-06T00:10:49.965Z,3.47
2019-03-06T00:13:18.974Z,3.10
2019-03-06T00:15:48.121Z,3.53
2019-03-06T00:18:17.079Z,2.90
2019-03-06T00:20:46.213Z,3.60
2019-03-06T00:23:15.062Z,4.20
2019-03-06T00:25:44.498Z,3.53
2019-03-06T00:28:13.802Z,3.50
2019-03-06T00:30:42.612Z,3.70
2019-03-06T00:33:11.585Z,3.63
2019-03-06T00:35:44.096Z,4.43
2019-03-06T00:38:13.040Z,4.80
2019-03-06T00:41:02.538Z,4.17
2019-03-06T00:43:31.423Z,4.83
2019-03-06T00:46:00.239Z,6.17
2019-03-06T00:48:29.511Z,5.37
2019-03-06T00:50:58.540Z,5.80
2019-03-06T00:53:28.103Z,5.20
2019-03-06T00:55:57.048Z,5.53
2019-03-06T00:58:26.742Z,5.63
2019-03-06T01:00:56.271Z,5.90
2019-03-06T01:03:25.275Z,6.77
2019-03-06T01:05:54.750Z,6.40
2019-03-06T01:08:23.803Z,7.57
2019-03-06T01:10:52.805Z,5.30
2019-03-06T01:13:22.279Z,6.70
2019-03-06T01:15:51.446Z,6.97
2019-03-06T01:18:20.391Z,5.73
2019-03-06T01:20:49.336Z,6.50
2019-03-06T01:23:18.200Z,6.33
2019-03-06T01:25:47.183Z,5.47
2019-03-06T01:28:16.117Z,6.43
2019-03-06T01:30:45.143Z,7.13
2019-03-06T01:33:27.064Z,7.27
2019-03-06T01:36:23.993Z,7.53
2019-03-06T01:39:27.198Z,7.80
2019-03-06T01:42:22.547Z,6.93
2019-03-06T01:44:57.907Z,7.30
2019-03-06T01:47:26.779Z,7.53
2019-03-06T01:49:55.702Z,7.90
2019-03-06T01:52:24.635Z,8.03
2019-03-06T01:54:53.537Z,8.73
2019-03-06T01:57:22.462Z,7.17
2019-03-06T01:59:51.793Z,8.00
2019-03-06T02:02:20.785Z,8.90
2019-03-06T02:04:50.051Z,8.50
2019-03-06T02:07:19.045Z,8.03
2019-03-06T02:09:48.030Z,8.53
2019-03-06T02:12:17.321Z,9.70
2019-03-06T02:14:46.348Z,8.20
2019-03-06T02:17:15.541Z,8.63
2019-03-06T02:19:44.459Z,8.43
2019-03-06T02:22:13.384Z,8.20
2019-03-06T02:24:42.273Z,9.97
2019-03-06T02:27:11.147Z,9.87
2019-03-06T02:29:40.177Z,9.30
2019-03-06T02:32:09.002Z,9.90
2019-03-06T02:34:38.241Z,9.17
2019-03-06T02:37:07.156Z,9.20
2019-03-06T02:39:36.121Z,8.50
2019-03-06T02:42:05.077Z,10.47
2019-03-06T02:44:34.029Z,10.53
2019-03-06T02:47:03.013Z,10.23
2019-03-06T02:49:31.932Z,9.83
2019-03-06T02:52:00.972Z,11.63
2019-03-06T02:54:29.817Z,8.70
2019-03-06T02:56:58.753Z,10.50
2019-03-06T02:59:37.936Z,11.30
2019-03-06T03:02:15.202Z,9.43
2019-03-06T03:05:06.116Z,10.77
2019-03-06T03:07:35.022Z,9.77
2019-03-06T03:10:04.524Z,11.40
2019-03-06T03:12:33.453Z,10.67
2019-03-06T03:15:02.374Z,12.07
2019-03-06T03:17:31.427Z,10.77
2019-03-06T03:20:00.543Z,11.30
2019-03-06T03:22:29.523Z,11.53
2019-03-06T03:24:58.388Z,10.90
2019-03-06T03:27:27.277Z,9.50
2019-03-06T03:29:56.185Z,10.03
2019-03-06T03:32:25.015Z,10.90
2019-03-06T03:34:54.389Z,10.50
2019-03-06T03:37:23.596Z,9.47
2019-03-06T03:39:52.485Z,11.40
2019-03-06T03:42:21.819Z,11.17
2019-03-06T03:44:51.014Z,10.10
2019-03-06T03:47:20.186Z,9.60
2019-03-06T03:49:49.054Z,10.13
2019-03-06T03:52:18.017Z,9.83
2019-03-06T03:54:46.891Z,10.00
2019-03-06T03:57:16.046Z,10.33
2019-03-06T03:59:45.053Z,9.07
2019-03-06T04:02:13.988Z,9.00
2019-03-06T04:04:43.313Z,9.77
2019-03-06T04:07:12.634Z,8.60
2019-03-06T04:09:41.907Z,9.60
2019-03-06T04:12:10.825Z,8.63
2019-03-06T04:14:39.767Z,7.90
2019-03-06T04:17:08.776Z,8.27
2019-03-06T04:19:37.698Z,8.47
2019-03-06T04:22:06.731Z,9.00
2019-03-06T04:24:35.757Z,8.93
2019-03-06T04:27:04.764Z,8.13
2019-03-06T04:29:33.674Z,8.90
2019-03-06T04:32:02.565Z,8.87
2019-03-06T04:34:31.433Z,9.13
2019-03-06T04:37:00.351Z,7.07
2019-03-06T04:39:29.210Z,8.90
2019-03-06T04:41:58.048Z,8.77
2019-03-06T04:44:27.391Z,9.73
2019-03-06T04:46:56.222Z,8.97
2019-03-06T04:49:24.627Z,9.63
2019-03-06T04:51:53.579Z,8.80
2019-03-06T04:54:22.817Z,8.20
2019-03-06T04:56:51.707Z,9.40
2019-03-06T04:59:20.701Z,7.80
2019-03-06T05:01:49.731Z,8.20
2019-03-06T05:04:18.623Z,7.93
2019-03-06T05:06:47.512Z,7.20
2019-03-06T05:09:16.738Z,9.17
2019-03-06T05:11:46.023Z,9.80
2019-03-06T05:14:15.289Z,10.17
2019-03-06T05:17:12.579Z,9.17
2019-03-06T05:19:42.015Z,7.57
2019-03-06T05:22:10.895Z,9.93
2019-03-06T05:24:40.199Z,8.10
2019-03-06T05:27:09.039Z,9.73
2019-03-06T05:29:38.124Z,8.70
2019-03-06T05:32:32.772Z,9.90
2019-03-06T05:35:23.466Z,9.43
2019-03-06T05:38:13.393Z,9.97
2019-03-06T05:40:42.351Z,10.73
2019-03-06T05:43:11.253Z,9.03
2019-03-06T05:45:40.349Z,10.50
2019-03-06T05:48:09.239Z,9.00
2019-03-06T05:50:38.184Z,10.00
2019-03-06T05:53:07.208Z,12.27
2019-03-06T05:55:36.067Z,11.00
2019-03-06T05:58:05.250Z,9.60
2019-03-06T06:00:34.319Z,10.87
2019-03-06T06:03:03.286Z,13.57
2019-03-06T06:05:32.235Z,12.33
2019-03-06T06:08:01.381Z,11.57
2019-03-06T06:10:30.382Z,11.13
2019-03-06T06:12:59.347Z,10.83
2019-03-06T06:15:28.225Z,12.07
2019-03-06T06:17:57.611Z,11.30
2019-03-06T06:20:26.483Z,11.87
2019-03-06T06:23:03.886Z,10.60
2019-03-06T06:25:34.080Z,12.77
2019-03-06T06:28:03.131Z,10.53
2019-03-06T06:30:32.095Z,10.10
2019-03-06T06:33:01.247Z,11.23
2019-03-06T06:35:30.918Z,10.80
2019-03-06T06:37:59.970Z,11.30
2019-03-06T06:40:28.953Z,9.40
2019-03-06T06:42:57.939Z,9.97
2019-03-06T06:45:27.087Z,10.70
2019-03-06T06:48:15.623Z,12.57
2019-03-06T06:51:01.163Z,11.80
2019-03-06T06:53:37.007Z,10.00
2019-03-06T06:56:16.319Z,10.03
2019-03-06T06:58:53.405Z,11.20
2019-03-06T07:02:32.971Z,9.70
2019-03-06T07:05:24.530Z,10.00
2019-03-06T07:08:21.313Z,9.87
2019-03-06T07:10:58.631Z,11.23
2019-03-06T07:13:52.703Z,10.77
2019-03-06T07:16:41.668Z,10.53
2019-03-06T07:19:14.438Z,10.50
2019-03-06T07:22:23.959Z,11.90
2019-03-06T07:25:21.808Z,10.00
2019-03-06T07:28:13.271Z,9.00
2019-03-06T07:31:08.615Z,9.20
2019-03-06T07:33:55.602Z,7.77
2019-03-06T07:37:02.383Z,9.07
2019-03-06T07:39:37.151Z,8.33
2019-03-06T07:42:20.924Z,7.40
2019-03-06T07:45:45.212Z,8.30
2019-03-06T07:48:20.615Z,7.67
2019-03-06T07:51:07.717Z,7.23
2019-03-06T07:54:19.681Z,8.33
2019-03-06T07:57:02.900Z,6.43
2019-03-06T07:59:31.898Z,6.87
2019-03-06T08:02:04.676Z,6.57
2019-03-06T08:04:33.571Z,6.50
2019-03-06T08:07:07.844Z,5.70
2019-03-06T08:09:36.661Z,5.70
2019-03-06T08:12:23.608Z,5.30
2019-03-06T08:15:14.625Z,4.73
2019-03-06T08:18:01.523Z,4.87
2019-03-06T08:21:07.819Z,4.90
2019-03-06T08:23:53.809Z,4.00
2019-03-06T08:26:22.625Z,4.00
2019-03-06T08:28:52.842Z,4.20
2019-03-06T08:31:29.870Z,5.30
2019-03-06T08:33:58.685Z,4.63
2019-03-06T08:36:28.459Z,4.03
2019-03-06T08:38:57.603Z,5.10
2019-03-06T08:41:26.436Z,4.27
2019-03-06T08:43:56.179Z,5.23
2019-03-06T08:46:47.471Z,3.70
2019-03-06T08:49:38.528Z,3.63
2019-03-06T08:52:15.626Z,3.63
2019-03-06T08:55:06.088Z,3.60
2019-03-06T08:57:46.972Z,3.97
2019-03-06T09:00:35.350Z,3.73
2019-03-06T09:03:42.442Z,2.90
2019-03-06T09:06:42.829Z,2.80
2019-03-06T09:09:30.987Z,2.57
2019-03-06T09:12:20.839Z,2.37
2019-03-06T09:15:10.470Z,3.57
2019-03-06T09:18:10.391Z,1.90
2019-03-06T09:21:02.320Z,2.00
2019-03-06T09:23:53.930Z,2.10
2019-03-06T09:26:48.659Z,3.33
2019-03-06T09:29:36.634Z,2.43
2019-03-06T09:32:15.256Z,2.73
2019-03-06T09:35:03.260Z,2.20
2019-03-06T09:37:50.403Z,3.57
2019-03-06T09:40:44.241Z,3.37
2019-03-06T09:43:31.460Z,2.40
2019-03-06T09:46:09.591Z,1.97
2019-03-06T09:48:44.856Z,3.97
2019-03-06T09:51:29.311Z,3.13
2019-03-06T09:54:17.061Z,2.27
2019-03-06T09:56:56.343Z,2.40
2019-03-06T09:59:40.267Z,2.43
2019-03-06T10:02:21.717Z,1.97
2019-03-06T10:05:01.562Z,3.23
2019-03-06T10:07:41.210Z,2.70
2019-03-06T10:10:30.127Z,2.90
2019-03-06T10:13:09.869Z,2.90
2019-03-06T10:16:00.877Z,1.93
2019-03-06T10:18:41.007Z,3.40
2019-03-06T10:21:10.600Z,2.70
2019-03-06T10:23:39.701Z,2.60
2019-03-06T10:26:08.838Z,2.40
2019-03-06T10:28:38.887Z,2.60
2019-03-06T10:31:08.323Z,2.60
2019-03-06T10:33:37.647Z,2.70
2019-03-06T10:36:07.658Z,2.40
2019-03-06T10:38:37.474Z,2.43
2019-03-06T10:41:07.135Z,2.30
2019-03-06T10:43:36.082Z,2.40
2019-03-06T10:46:05.107Z,3.70
2019-03-06T10:48:34.447Z,3.67
2019-03-06T10:51:03.425Z,2.33
2019-03-06T10:53:41.042Z,2.70
2019-03-06T10:56:03.359Z,2.80
2019-03-06T10:58:32.723Z,2.20
2019-03-06T11:01:02.102Z,2.40
2019-03-06T11:03:52.988Z,1.70
2019-03-06T11:06:22.005Z,1.90
2019-03-06T11:08:51.653Z,2.73
2019-03-06T11:11:21.063Z,2.40
2019-03-06T11:13:50.894Z,2.63
2019-03-06T11:16:20.035Z,3.00
2019-03-06T11:18:49.508Z,2.80
2019-03-06T11:21:19.440Z,2.33
2019-03-06T11:23:48.428Z,2.83
2019-03-06T11:26:17.413Z,2.77
2019-03-06T11:28:46.448Z,2.07
2019-03-06T11:31:16.092Z,2.20
2019-03-06T11:33:46.135Z,2.10
2019-03-06T11:36:15.400Z,1.93
2019-03-06T11:38:44.478Z,2.27
2019-03-06T11:41:14.466Z,1.70
2019-03-06T11:43:43.491Z,1.70
2019-03-06T11:46:13.507Z,1.97
2019-03-06T11:48:43.475Z,1.60
2019-03-06T11:51:12.432Z,2.30
2019-03-06T11:53:41.491Z,1.80
2019-03-06T11:56:11.194Z,2.37
2019-03-06T11:58:40.488Z,2.63
2019-03-06T12:01:14.709Z,2.63
2019-03-06T12:03:43.752Z,2.10
2019-03-06T12:06:12.834Z,2.23
2019-03-06T12:08:45.903Z,1.60
2019-03-06T12:11:13.756Z,1.37
2019-03-06T12:13:42.920Z,2.03
2019-03-06T12:16:14.804Z,3.10
2019-03-06T12:18:44.366Z,1.90
2019-03-06T12:21:13.773Z,2.37
2019-03-06T12:23:43.198Z,1.60
2019-03-06T12:26:12.403Z,3.30
2019-03-06T12:28:41.763Z,2.07
2019-03-06T12:31:11.175Z,1.90
2019-03-06T12:33:40.303Z,2.00
2019-03-06T12:36:09.321Z,2.20
2019-03-06T12:38:40.151Z,1.30
2019-03-06T12:41:09.311Z,1.60
2019-03-06T12:43:38.505Z,1.50
2019-03-06T12:46:32.821Z,2.80
2019-03-06T12:49:04.367Z,2.40
2019-03-06T12:51:34.783Z,1.87
2019-03-06T12:54:03.978Z,1.80
2019-03-06T12:56:33.177Z,2.20
2019-03-06T12:59:03.550Z,1.73
2019-03-06T13:01:32.665Z,2.10
2019-03-06T13:04:02.191Z,2.30
2019-03-06T13:06:31.480Z,2.10
2019-03-06T13:09:01.158Z,1.90
2019-03-06T13:11:30.576Z,2.33
2019-03-06T13:14:00.034Z,2.50
2019-03-06T13:16:29.919Z,2.20
2019-03-06T13:18:59.203Z,1.20
2019-03-06T13:21:28.153Z,2.90
2019-03-06T13:23:58.857Z,1.50
2019-03-06T13:26:27.958Z,2.97
2019-03-06T13:28:57.655Z,1.87
2019-03-06T13:31:26.924Z,2.67
2019-03-06T13:34:30.427Z,2.30
2019-03-06T13:36:59.403Z,2.30
2019-03-06T13:39:29.044Z,1.93
2019-03-06T13:41:58.082Z,1.87
2019-03-06T13:44:28.155Z,1.50
2019-03-06T13:46:57.258Z,2.20
2019-03-06T13:49:28.075Z,1.60
2019-03-06T13:51:57.292Z,2.73
2019-03-06T13:54:26.414Z,1.60
2019-03-06T13:56:55.326Z,2.80
2019-03-06T13:59:24.275Z,2.90
2019-03-06T14:01:53.578Z,1.97
2019-03-06T14:04:22.730Z,1.60
2019-03-06T14:06:51.729Z,3.23
2019-03-06T14:09:20.651Z,2.30
2019-03-06T14:11:49.728Z,2.57
2019-03-06T14:14:18.698Z,2.23
2019-03-06T14:16:47.695Z,2.42
2019-03-06T14:19:16.786Z,3.30
2019-03-06T14:21:45.914Z,2.03
2019-03-06T14:24:15.238Z,2.20
2019-03-06T14:26:44.306Z,2.70
2019-03-06T14:29:13.444Z,2.93
2019-03-06T14:31:42.956Z,2.50
2019-03-06T14:34:12.051Z,3.10
2019-03-06T14:36:41.284Z,2.57
2019-03-06T14:39:26.348Z,2.07
2019-03-06T14:41:56.049Z,2.33
2019-03-06T14:44:25.317Z,3.87
2019-03-06T14:46:54.336Z,3.33
2019-03-06T14:49:23.386Z,2.77
2019-03-06T14:51:52.602Z,3.07
2019-03-06T14:54:21.642Z,2.20
2019-03-06T14:56:50.620Z,2.27
2019-03-06T14:59:19.692Z,3.27
2019-03-06T15:01:48.650Z,2.80
2019-03-06T15:04:18.760Z,2.30
2019-03-06T15:06:47.888Z,2.17
2019-03-06T15:09:25.057Z,3.30
2019-03-06T15:11:55.496Z,3.20
2019-03-06T15:14:24.408Z,2.77
2019-03-06T15:16:53.363Z,2.93
2019-03-06T15:19:22.686Z,2.37
2019-03-06T15:21:51.684Z,6.57
2019-03-06T15:24:20.631Z,1.93
2019-03-06T15:26:49.691Z,2.70
2019-03-06T15:29:18.590Z,2.40
2019-03-06T15:31:55.515Z,2.10
2019-03-06T15:34:25.154Z,3.17
2019-03-06T15:36:54.233Z,2.80
2019-03-06T15:39:48.089Z,2.93
2019-03-06T15:42:14.570Z,3.03
2019-03-06T15:44:44.189Z,1.97
2019-03-06T15:47:13.697Z,2.33
2019-03-06T15:49:42.592Z,2.30
2019-03-06T15:52:12.469Z,2.00
2019-03-06T15:54:41.558Z,2.10
2019-03-06T15:57:10.810Z,1.87
2019-03-06T15:59:40.079Z,3.00
2019-03-06T16:02:09.439Z,1.87
2019-03-06T16:04:38.744Z,2.33
2019-03-06T16:07:07.719Z,2.10
2019-03-06T16:09:37.853Z,2.30
2019-03-06T16:12:06.957Z,3.23
2019-03-06T16:14:36.380Z,3.90
2019-03-06T16:17:06.688Z,2.57
2019-03-06T16:19:35.953Z,2.33
2019-03-06T16:22:05.444Z,3.80
2019-03-06T16:24:34.709Z,2.53
2019-03-06T16:27:04.378Z,3.13
2019-03-06T16:29:35.077Z,3.10
2019-03-06T16:32:04.846Z,2.50
2019-03-06T16:34:34.032Z,3.40
2019-03-06T16:37:03.344Z,3.40
2019-03-06T16:39:32.587Z,2.57
2019-03-06T16:42:01.630Z,4.70
2019-03-06T16:44:30.746Z,2.30
2019-03-06T16:47:06.415Z,2.40
2019-03-06T16:49:30.562Z,3.73
2019-03-06T16:51:59.808Z,2.40
2019-03-06T16:54:29.043Z,3.00
2019-03-06T16:56:58.255Z,2.80
2019-03-06T16:59:26.788Z,2.33
2019-03-06T17:01:56.089Z,2.00
2019-03-06T17:04:25.916Z,2.70
2019-03-06T17:06:54.820Z,2.13
2019-03-06T17:09:24.029Z,2.73
2019-03-06T17:11:53.236Z,3.30
2019-03-06T17:14:23.261Z,2.60
2019-03-06T17:16:52.558Z,3.67
2019-03-06T17:19:21.855Z,2.87
2019-03-06T17:21:50.676Z,3.20
2019-03-06T17:24:19.958Z,4.53
2019-03-06T17:26:49.066Z,3.37
2019-03-06T17:29:18.032Z,2.57
2019-03-06T17:31:47.151Z,3.57
2019-03-06T17:34:16.543Z,3.53
2019-03-06T17:36:45.852Z,3.37
2019-03-06T17:39:16.118Z,2.97
2019-03-06T17:41:45.491Z,3.03
2019-03-06T17:44:15.049Z,3.57
2019-03-06T17:46:44.270Z,2.03
2019-03-06T17:49:13.344Z,2.43
2019-03-06T17:51:42.570Z,2.30
2019-03-06T17:54:11.794Z,3.33
2019-03-06T17:56:40.789Z,2.60
2019-03-06T17:59:09.943Z,3.60
2019-03-06T18:01:39.325Z,1.90
2019-03-06T18:04:18.922Z,3.60
2019-03-06T18:06:48.326Z,3.13
2019-03-06T18:09:17.508Z,2.60
2019-03-06T18:11:46.410Z,2.77
2019-03-06T18:14:15.384Z,2.77
2019-03-06T18:16:44.481Z,2.43
2019-03-06T18:19:13.438Z,2.83
2019-03-06T18:21:42.547Z,2.97
2019-03-06T18:24:13.078Z,2.80
2019-03-06T18:26:42.593Z,2.50
2019-03-06T18:29:12.223Z,2.53
2019-03-06T18:31:41.332Z,2.50
2019-03-06T18:34:10.718Z,2.70
2019-03-06T18:36:39.898Z,3.33
2019-03-06T18:39:20.509Z,2.40
2019-03-06T18:41:49.651Z,2.37
2019-03-06T18:44:18.740Z,3.40
2019-03-06T18:46:48.408Z,2.63
2019-03-06T18:49:17.754Z,3.70
2019-03-06T18:51:47.375Z,2.83
2019-03-06T18:54:16.782Z,2.67
2019-03-06T18:56:46.025Z,2.83
2019-03-06T18:59:15.111Z,2.23
2019-03-06T19:01:43.946Z,2.97
2019-03-06T19:04:13.469Z,2.23
2019-03-06T19:06:42.371Z,2.43
2019-03-06T19:09:11.462Z,4.20
2019-03-06T19:11:40.550Z,3.07
2019-03-06T19:14:09.741Z,2.57
2019-03-06T19:16:38.744Z,2.60
2019-03-06T19:19:08.351Z,2.33
2019-03-06T19:21:37.542Z,2.03
2019-03-06T19:24:06.960Z,3.50
2019-03-06T19:26:36.074Z,2.02
2019-03-06T19:29:06.154Z,3.23
2019-03-06T19:31:35.570Z,3.20
2019-03-06T19:34:05.962Z,3.13
2019-03-06T19:36:35.462Z,2.70
2019-03-06T19:39:06.335Z,2.50
2019-03-06T19:41:35.836Z,1.83
2019-03-06T19:44:06.256Z,2.60
2019-03-06T19:46:35.325Z,4.10
2019-03-06T19:49:04.675Z,3.07
2019-03-06T19:51:33.803Z,3.00
2019-03-06T19:54:02.943Z,2.80
2019-03-06T19:56:33.804Z,3.40
2019-03-06T19:59:03.108Z,3.47
2019-03-06T20:01:32.893Z,3.20
2019-03-06T20:04:03.606Z,3.43
2019-03-06T20:06:32.730Z,3.07
2019-03-06T20:09:02.175Z,2.90
2019-03-06T20:11:31.247Z,2.80
2019-03-06T20:14:00.504Z,4.20
2019-03-06T20:16:30.079Z,2.73
2019-03-06T20:18:59.094Z,2.53
2019-03-06T20:21:28.574Z,3.67
2019-03-06T20:23:58.055Z,2.60
2019-03-06T20:26:27.704Z,4.00
2019-03-06T20:28:56.940Z,3.47
2019-03-06T20:31:26.142Z,2.30
2019-03-06T20:33:55.127Z,3.10
2019-03-06T20:36:24.129Z,3.00
2019-03-06T20:38:53.137Z,3.20
2019-03-06T20:41:22.160Z,3.97
2019-03-06T20:43:51.540Z,3.60
2019-03-06T20:46:22.305Z,2.97
2019-03-06T20:48:52.075Z,2.77
2019-03-06T20:51:21.750Z,4.70
2019-03-06T20:53:50.620Z,2.97
2019-03-06T20:56:20.717Z,2.87
2019-03-06T20:59:09.046Z,4.93
2019-03-06T21:01:38.652Z,3.50
2019-03-06T21:04:07.951Z,3.13
2019-03-06T21:06:37.706Z,4.70
2019-03-06T21:09:07.871Z,2.60
2019-03-06T21:11:37.200Z,3.00
2019-03-06T21:14:07.198Z,3.60
2019-03-06T21:16:36.130Z,3.43
2019-03-06T21:19:05.123Z,4.17
2019-03-06T21:21:41.136Z,2.70
2019-03-06T21:24:10.635Z,3.17
2019-03-06T21:26:46.181Z,4.17
2019-03-06T21:29:23.375Z,3.07
2019-03-06T21:31:52.970Z,2.80
2019-03-06T21:34:25.055Z,2.87
2019-03-06T21:36:54.956Z,3.63
2019-03-06T21:39:25.322Z,3.27
2019-03-06T21:42:01.988Z,3.63
2019-03-06T21:44:33.728Z,3.67
2019-03-06T21:47:06.210Z,2.37
2019-03-06T21:49:35.382Z,4.20
2019-03-06T21:52:04.624Z,3.27
2019-03-06T21:54:33.777Z,3.17
2019-03-06T21:57:03.000Z,3.27
2019-03-06T21:59:31.821Z,5.23
2019-03-06T22:02:01.169Z,3.07
2019-03-06T22:04:30.131Z,3.50
2019-03-06T22:06:59.988Z,2.27
2019-03-06T22:09:28.858Z,3.27
2019-03-06T22:11:57.673Z,2.03
2019-03-06T22:14:27.059Z,3.47
2019-03-06T22:16:55.936Z,3.10
2019-03-06T22:19:25.048Z,3.00
2019-03-06T22:21:54.439Z,3.00
2019-03-06T22:24:23.859Z,2.50
2019-03-06T22:26:53.192Z,2.50
2019-03-06T22:29:22.021Z,3.07
2019-03-06T22:31:50.919Z,4.13
2019-03-06T22:34:19.923Z,3.23
2019-03-06T22:36:49.289Z,3.30
2019-03-06T22:39:18.160Z,2.50
2019-03-06T22:41:47.168Z,3.07
2019-03-06T22:44:16.368Z,4.00
2019-03-06T22:46:45.633Z,3.27
2019-03-06T22:49:14.488Z,2.93
2019-03-06T22:51:43.733Z,3.17
2019-03-06T22:54:12.557Z,2.70
2019-03-06T22:56:41.520Z,2.93
2019-03-06T22:59:10.446Z,3.17
2019-03-06T23:01:40.708Z,4.40
2019-03-06T23:04:09.635Z,3.13
2019-03-06T23:06:38.480Z,3.33
2019-03-06T23:09:10.434Z,3.83
2019-03-06T23:11:40.031Z,3.00
2019-03-06T23:14:09.030Z,3.30
2019-03-06T23:16:38.325Z,3.62
2019-03-06T23:19:07.911Z,2.10
2019-03-06T23:21:36.830Z,3.37
2019-03-06T23:24:05.824Z,3.37
2019-03-06T23:26:42.460Z,3.33
2019-03-06T23:29:05.757Z,3.83
2019-03-06T23:31:36.440Z,3.50
2019-03-06T23:34:05.809Z,3.80
2019-03-06T23:36:35.058Z,4.33
2019-03-06T23:39:05.431Z,3.10
2019-03-06T23:41:34.575Z,3.53
2019-03-06T23:44:03.575Z,3.50
2019-03-06T23:46:33.141Z,3.50
2019-03-06T23:49:02.464Z,3.30
2019-03-06T23:51:35.925Z,3.10
2019-03-06T23:54:04.934Z,2.83
2019-03-06T23:56:33.939Z,3.60
2019-03-06T23:59:03.620Z,3.57
